createdAt,value
2024-01-12T00:00:29.668Z,85.06
2024-01-12T00:03:52.954Z,85.26
2024-01-12T00:07:07.070Z,85.64
2024-01-12T00:10:12.842Z,85.34
2024-01-12T00:13:16.209Z,85.37
2024-01-12T00:16:24.735Z,85.44
2024-01-12T00:19:27.973Z,85.53
2024-01-12T00:22:31.149Z,85.81
2024-01-12T00:25:34.313Z,86.22
2024-01-12T00:28:43.453Z,86.13
2024-01-12T00:31:46.681Z,85.68
2024-01-12T00:34:58.373Z,85.53
2024-01-12T00:38:07.160Z,85.73
2024-01-12T00:41:15.190Z,85.46
2024-01-12T00:44:29.062Z,85.59
2024-01-12T00:47:34.939Z,85.70
2024-01-12T00:50:45.223Z,86.00
2024-01-12T00:54:08.655Z,86.10
2024-01-12T00:57:34.043Z,86.18
2024-01-12T01:00:50.167Z,86.40
2024-01-12T01:03:53.537Z,86.58
2024-01-12T01:07:07.408Z,86.56
2024-01-12T01:10:18.806Z,86.38
2024-01-12T01:13:22.021Z,86.35
2024-01-12T01:16:30.293Z,86.47
2024-01-12T01:19:41.093Z,86.71
2024-01-12T01:22:44.348Z,86.69
2024-01-12T01:25:50.449Z,86.71
2024-01-12T01:29:02.560Z,86.81
2024-01-12T01:32:05.620Z,86.89
2024-01-12T01:35:17.514Z,87.07
2024-01-12T01:38:20.831Z,87.12
2024-01-12T01:41:24.079Z,87.37
2024-01-12T01:44:27.282Z,87.37
2024-01-12T01:47:39.867Z,88.16
2024-01-12T01:50:49.115Z,88.82
2024-01-12T01:54:02.817Z,89.60
2024-01-12T01:57:16.272Z,90.06
2024-01-12T02:00:29.944Z,90.25
2024-01-12T02:04:03.422Z,90.66
2024-01-12T02:07:18.207Z,90.66
2024-01-12T02:10:37.124Z,90.54
2024-01-12T02:14:08.482Z,90.58
2024-01-12T02:17:17.783Z,90.44
2024-01-12T02:20:29.166Z,90.77
2024-01-12T02:23:35.727Z,90.88
2024-01-12T02:26:41.438Z,90.69
2024-01-12T02:29:47.270Z,90.48
2024-01-12T02:32:56.877Z,90.22
2024-01-12T02:36:03.021Z,89.93
2024-01-12T02:39:20.149Z,89.76
2024-01-12T02:42:23.588Z,89.67
2024-01-12T02:45:29.580Z,89.78
2024-01-12T02:48:40.225Z,89.80
2024-01-12T02:51:49.718Z,89.74
2024-01-12T02:54:52.925Z,89.58
2024-01-12T02:58:08.870Z,89.59
2024-01-12T03:02:12.597Z,89.66
2024-01-12T03:08:24.899Z,89.81
2024-01-12T03:11:27.837Z,89.82
2024-01-12T03:14:30.706Z,89.69
2024-01-12T03:17:33.758Z,89.54
2024-01-12T03:20:36.773Z,89.33
2024-01-12T03:23:39.608Z,89.24
2024-01-12T03:26:42.508Z,89.14
2024-01-12T03:29:45.325Z,88.92
2024-01-12T03:32:48.299Z,88.65
2024-01-12T03:35:51.201Z,88.47
2024-01-12T03:38:55.848Z,88.50
2024-01-12T03:41:58.960Z,88.53
2024-01-12T03:45:01.980Z,88.49
2024-01-12T03:48:05.415Z,88.36
2024-01-12T03:51:08.447Z,88.27
2024-01-12T03:54:11.897Z,88.24
2024-01-12T03:57:14.708Z,88.16
2024-01-12T04:00:17.692Z,87.99
2024-01-12T04:03:20.525Z,88.02
2024-01-12T04:06:23.493Z,88.00
2024-01-12T04:09:26.362Z,87.87
2024-01-12T04:12:29.154Z,88.09
2024-01-12T04:15:31.965Z,87.88
2024-01-12T04:18:35.076Z,87.93
2024-01-12T04:21:38.057Z,87.98
2024-01-12T04:24:40.814Z,88.55
2024-01-12T04:27:43.617Z,88.41
2024-01-12T04:30:46.375Z,88.26
2024-01-12T04:33:49.311Z,88.39
2024-01-12T04:36:52.170Z,88.57
2024-01-12T04:39:55.007Z,88.84
2024-01-12T04:42:57.836Z,88.99
2024-01-12T04:46:00.783Z,89.24
2024-01-12T04:49:03.721Z,89.32
2024-01-12T04:52:06.657Z,89.56
2024-01-12T04:55:09.630Z,89.51
2024-01-12T04:58:12.496Z,89.49
2024-01-12T05:01:15.247Z,89.76
2024-01-12T05:04:18.264Z,89.90
2024-01-12T05:07:21.073Z,90.17
2024-01-12T05:10:23.849Z,90.37
2024-01-12T05:13:26.679Z,90.47
2024-01-12T05:16:29.548Z,90.62
2024-01-12T05:19:32.518Z,90.63
2024-01-12T05:22:37.125Z,90.63
2024-01-12T05:25:40.225Z,90.79
2024-01-12T05:28:43.053Z,90.78
2024-01-12T05:31:46.162Z,90.96
2024-01-12T05:34:49.074Z,90.99
2024-01-12T05:37:52.749Z,91.09
2024-01-12T05:40:55.552Z,91.40
2024-01-12T05:43:58.404Z,91.46
2024-01-12T05:47:01.269Z,91.55
2024-01-12T05:50:04.772Z,91.68
2024-01-12T05:53:08.080Z,91.67
2024-01-12T05:56:11.322Z,91.64
2024-01-12T05:59:15.602Z,91.72
2024-01-12T06:02:18.499Z,91.83
2024-01-12T06:05:21.557Z,91.88
2024-01-12T06:08:25.042Z,91.92
2024-01-12T06:11:27.877Z,92.00
2024-01-12T06:14:31.230Z,92.21
2024-01-12T06:17:34.200Z,92.37
2024-01-12T06:20:37.092Z,92.52
2024-01-12T06:23:40.102Z,92.64
2024-01-12T06:26:43.974Z,92.72
2024-01-12T06:29:46.949Z,92.83
2024-01-12T06:32:49.935Z,92.93
2024-01-12T06:35:52.831Z,93.06
2024-01-12T06:38:56.909Z,93.15
2024-01-12T06:42:00.492Z,93.29
2024-01-12T06:45:07.614Z,93.28
2024-01-12T06:48:11.538Z,93.30
2024-01-12T06:51:22.480Z,93.27
2024-01-12T06:54:25.465Z,93.13
2024-01-12T06:57:28.628Z,93.15
2024-01-12T07:00:31.460Z,93.14
2024-01-12T07:03:34.328Z,93.10
2024-01-12T07:06:37.290Z,93.25
2024-01-12T07:09:40.783Z,93.31
2024-01-12T07:12:43.575Z,93.32
2024-01-12T07:15:46.394Z,93.44
2024-01-12T07:18:49.515Z,93.46
2024-01-12T07:21:52.564Z,93.46
2024-01-12T07:24:55.446Z,93.50
2024-01-12T07:27:58.346Z,93.41
2024-01-12T07:31:01.312Z,93.39
2024-01-12T07:34:05.743Z,93.34
2024-01-12T07:37:09.202Z,93.28
2024-01-12T07:40:13.747Z,93.19
2024-01-12T07:43:16.714Z,93.05
2024-01-12T07:46:19.715Z,92.97
2024-01-12T07:49:22.514Z,92.79
2024-01-12T07:52:25.727Z,92.46
2024-01-12T07:55:28.669Z,92.20
2024-01-12T07:58:33.023Z,91.90
2024-01-12T08:01:36.128Z,91.78
2024-01-12T08:04:39.539Z,91.65
2024-01-12T08:07:42.548Z,91.50
2024-01-12T08:10:45.434Z,91.38
2024-01-12T08:13:48.196Z,91.29
2024-01-12T08:16:51.504Z,91.20
2024-01-12T08:19:54.274Z,91.07
2024-01-12T08:22:57.112Z,90.54
2024-01-12T08:25:59.869Z,90.05
2024-01-12T08:29:03.214Z,89.56
2024-01-12T08:32:06.146Z,89.31
2024-01-12T08:35:09.556Z,88.84
2024-01-12T08:38:13.465Z,88.27
2024-01-12T08:41:16.476Z,87.93
2024-01-12T08:44:19.288Z,87.60
2024-01-12T08:47:22.336Z,87.38
2024-01-12T08:50:25.739Z,87.22
2024-01-12T08:53:28.562Z,87.14
2024-01-12T08:56:31.926Z,87.05
2024-01-12T08:59:34.787Z,86.85
2024-01-12T09:02:37.622Z,86.87
2024-01-12T09:05:40.654Z,86.85
2024-01-12T09:08:43.558Z,86.71
2024-01-12T09:11:46.552Z,86.62
2024-01-12T09:14:49.500Z,86.71
2024-01-12T09:17:52.361Z,86.94
2024-01-12T09:20:55.353Z,87.06
2024-01-12T09:23:58.245Z,87.12
2024-01-12T09:27:01.114Z,87.06
2024-01-12T09:30:04.495Z,87.07
2024-01-12T09:33:07.950Z,87.18
2024-01-12T09:36:11.175Z,87.14
2024-01-12T09:39:16.315Z,87.07
2024-01-12T09:42:22.703Z,86.49
2024-01-12T09:45:26.885Z,86.17
2024-01-12T09:48:30.845Z,86.07
2024-01-12T09:51:33.784Z,86.06
2024-01-12T09:54:36.689Z,85.27
2024-01-12T09:57:40.429Z,83.95
2024-01-12T10:00:45.978Z,83.18
2024-01-12T10:03:50.016Z,82.44
2024-01-12T10:06:52.961Z,81.18
2024-01-12T10:09:55.837Z,80.46
2024-01-12T10:12:58.559Z,79.54
2024-01-12T10:16:02.949Z,78.82
2024-01-12T10:19:06.526Z,78.47
2024-01-12T10:22:15.655Z,77.79
2024-01-12T10:25:18.494Z,76.56
2024-01-12T10:28:21.394Z,75.44
2024-01-12T10:31:24.304Z,75.42
2024-01-12T10:34:35.026Z,73.48
2024-01-12T10:37:39.436Z,72.11
2024-01-12T10:40:44.554Z,70.54
2024-01-12T10:43:52.324Z,73.04
2024-01-12T10:47:03.201Z,73.49
2024-01-12T10:50:07.943Z,73.06
2024-01-12T10:53:10.809Z,71.84
2024-01-12T10:56:14.047Z,72.54
2024-01-12T10:59:17.665Z,73.60
2024-01-12T11:02:20.719Z,74.67
2024-01-12T11:05:26.713Z,75.16
2024-01-12T11:08:30.391Z,75.62
2024-01-12T11:11:41.737Z,76.32
2024-01-12T11:14:44.778Z,76.63
2024-01-12T11:17:47.767Z,77.01
2024-01-12T11:21:01.830Z,77.01
2024-01-12T11:24:04.907Z,77.31
2024-01-12T11:27:07.957Z,77.45
2024-01-12T11:30:16.138Z,77.38
2024-01-12T11:33:20.639Z,76.99
2024-01-12T11:36:32.540Z,76.23
2024-01-12T11:39:38.582Z,76.15
2024-01-12T11:42:44.341Z,76.07
2024-01-12T11:45:47.929Z,76.53
2024-01-12T11:48:52.865Z,76.47
2024-01-12T11:52:06.230Z,76.56
2024-01-12T11:55:10.921Z,76.39
2024-01-12T11:58:13.759Z,76.58
2024-01-12T12:01:16.710Z,76.95
2024-01-12T12:04:19.559Z,76.47
2024-01-12T12:07:28.826Z,76.49
2024-01-12T12:10:37.985Z,75.84
2024-01-12T12:13:46.841Z,75.49
2024-01-12T12:16:49.813Z,75.49
2024-01-12T12:19:53.106Z,75.99
2024-01-12T12:22:57.759Z,76.27
2024-01-12T12:26:00.950Z,75.59
2024-01-12T12:29:05.484Z,75.50
2024-01-12T12:32:15.069Z,74.71
2024-01-12T12:35:20.528Z,75.17
2024-01-12T12:38:23.776Z,75.33
2024-01-12T12:41:26.871Z,74.46
2024-01-12T12:44:29.947Z,73.77
2024-01-12T12:47:37.477Z,74.46
2024-01-12T12:50:40.373Z,74.80
2024-01-12T12:53:43.254Z,74.71
2024-01-12T12:56:47.591Z,75.28
2024-01-12T12:59:50.641Z,75.34
2024-01-12T13:02:53.568Z,75.41
2024-01-12T13:05:56.872Z,75.09
2024-01-12T13:08:59.843Z,74.87
2024-01-12T13:12:05.354Z,75.37
2024-01-12T13:15:10.212Z,75.02
2024-01-12T13:18:13.253Z,75.27
2024-01-12T13:21:16.653Z,75.25
2024-01-12T13:24:19.742Z,75.29
2024-01-12T13:27:22.904Z,75.46
2024-01-12T13:30:25.863Z,75.74
2024-01-12T13:33:29.066Z,75.96
2024-01-12T13:36:32.096Z,76.28
2024-01-12T13:39:35.329Z,76.60
2024-01-12T13:42:39.243Z,76.89
2024-01-12T13:45:42.118Z,77.27
2024-01-12T13:48:48.182Z,77.86
2024-01-12T13:51:51.186Z,77.73
2024-01-12T13:54:54.091Z,77.66
2024-01-12T13:57:56.916Z,78.07
2024-01-12T14:01:00.022Z,79.86
2024-01-12T14:04:06.292Z,79.90
2024-01-12T14:07:09.374Z,79.77
2024-01-12T14:10:13.182Z,79.45
2024-01-12T14:13:18.153Z,79.25
2024-01-12T14:16:21.024Z,79.36
2024-01-12T14:19:24.042Z,79.44
2024-01-12T14:22:27.941Z,79.51
2024-01-12T14:25:30.819Z,79.56
2024-01-12T14:28:34.394Z,80.23
2024-01-12T14:31:37.284Z,80.22
2024-01-12T14:34:40.439Z,80.22
2024-01-12T14:37:43.305Z,81.00
2024-01-12T14:40:46.277Z,80.54
2024-01-12T14:43:49.176Z,80.38
2024-01-12T14:46:52.111Z,80.41
2024-01-12T14:49:55.189Z,80.55
2024-01-12T14:52:58.272Z,80.65
2024-01-12T14:56:01.270Z,81.31
2024-01-12T14:59:05.505Z,82.37
2024-01-12T15:02:08.975Z,82.07
2024-01-12T15:05:14.508Z,82.43
2024-01-12T15:08:19.067Z,81.84
2024-01-12T15:11:22.160Z,82.37
2024-01-12T15:14:26.347Z,82.26
2024-01-12T15:17:29.531Z,82.60
2024-01-12T15:20:32.966Z,83.27
2024-01-12T15:23:35.883Z,83.14
2024-01-12T15:26:38.727Z,82.50
2024-01-12T15:29:41.614Z,82.70
2024-01-12T15:32:44.666Z,82.36
2024-01-12T15:35:47.712Z,82.86
2024-01-12T15:38:50.613Z,82.92
2024-01-12T15:41:54.528Z,83.07
2024-01-12T15:44:57.550Z,83.36
2024-01-12T15:48:01.159Z,83.24
2024-01-12T15:51:04.107Z,82.96
2024-01-12T15:54:07.001Z,83.08
2024-01-12T15:57:10.023Z,83.14
2024-01-12T16:00:13.839Z,84.53
2024-01-12T16:03:16.948Z,84.78
2024-01-12T16:06:19.971Z,84.75
2024-01-12T16:09:22.888Z,84.36
2024-01-12T16:12:25.859Z,84.72
2024-01-12T16:15:28.712Z,84.76
2024-01-12T16:18:31.591Z,84.83
2024-01-12T16:21:36.569Z,84.33
2024-01-12T16:24:40.013Z,84.33
2024-01-12T16:27:42.836Z,84.02
2024-01-12T16:30:46.433Z,83.74
2024-01-12T16:33:49.532Z,83.64
2024-01-12T16:36:52.499Z,83.70
2024-01-12T16:39:55.272Z,83.85
2024-01-12T16:42:58.103Z,83.88
2024-01-12T16:46:00.836Z,83.95
2024-01-12T16:49:03.890Z,84.04
2024-01-12T16:52:06.902Z,84.13
2024-01-12T16:55:09.939Z,83.78
2024-01-12T16:58:13.129Z,83.49
2024-01-12T17:01:16.523Z,83.47
2024-01-12T17:04:19.373Z,83.57
2024-01-12T17:07:22.535Z,83.55
2024-01-12T17:10:25.638Z,83.55
2024-01-12T17:13:28.508Z,83.77
2024-01-12T17:16:36.035Z,83.75
2024-01-12T17:19:39.969Z,83.95
2024-01-12T17:22:42.786Z,84.98
2024-01-12T17:25:45.631Z,84.69
2024-01-12T17:28:48.811Z,84.44
2024-01-12T17:31:51.959Z,84.30
2024-01-12T17:34:54.940Z,84.18
2024-01-12T17:37:57.827Z,84.21
2024-01-12T17:41:00.667Z,84.31
2024-01-12T17:44:03.480Z,84.55
2024-01-12T17:47:06.432Z,84.62
2024-01-12T17:50:09.573Z,84.72
2024-01-12T17:53:12.423Z,84.76
2024-01-12T17:56:15.224Z,85.05
2024-01-12T17:59:18.754Z,85.17
2024-01-12T18:02:21.563Z,84.99
2024-01-12T18:05:24.535Z,85.00
2024-01-12T18:08:27.471Z,85.26
2024-01-12T18:11:30.262Z,85.01
2024-01-12T18:14:40.090Z,85.17
2024-01-12T18:17:42.990Z,85.50
2024-01-12T18:20:46.278Z,89.76
2024-01-12T18:23:49.219Z,90.50
2024-01-12T18:26:52.021Z,89.90
2024-01-12T18:29:55.966Z,89.79
2024-01-12T18:32:59.001Z,89.94
2024-01-12T18:36:02.239Z,89.93
2024-01-12T18:39:05.428Z,88.85
2024-01-12T18:42:08.424Z,83.65
2024-01-12T18:45:11.382Z,81.66
2024-01-12T18:48:16.753Z,82.22
2024-01-12T18:51:23.426Z,81.36
2024-01-12T18:54:29.480Z,79.70
2024-01-12T18:57:32.312Z,81.03
2024-01-12T19:00:35.145Z,81.01
2024-01-12T19:03:37.980Z,80.45
2024-01-12T19:06:40.825Z,79.70
2024-01-12T19:09:43.767Z,78.88
2024-01-12T19:12:47.907Z,77.56
2024-01-12T19:15:50.811Z,76.95
2024-01-12T19:18:53.862Z,76.99
2024-01-12T19:21:56.794Z,76.96
2024-01-12T19:24:59.599Z,76.27
2024-01-12T19:28:02.439Z,76.37
2024-01-12T19:31:05.587Z,76.00
2024-01-12T19:34:08.901Z,76.39
2024-01-12T19:37:11.992Z,76.77
2024-01-12T19:40:15.061Z,76.78
2024-01-12T19:43:17.905Z,77.09
2024-01-12T19:46:20.740Z,77.75
2024-01-12T19:49:23.747Z,77.70
2024-01-12T19:52:27.318Z,77.94
2024-01-12T19:55:30.158Z,78.52
2024-01-12T19:58:33.094Z,78.30
2024-01-12T20:01:36.027Z,78.61
2024-01-12T20:04:44.729Z,79.26
2024-01-12T20:07:51.044Z,79.60
2024-01-12T20:10:54.127Z,80.02
2024-01-12T20:13:57.145Z,80.15
2024-01-12T20:17:00.032Z,80.32
2024-01-12T20:20:03.447Z,80.08
2024-01-12T20:23:06.476Z,81.21
2024-01-12T20:26:09.630Z,82.62
2024-01-12T20:29:21.758Z,81.13
2024-01-12T20:32:25.400Z,79.03
2024-01-12T20:35:28.422Z,78.46
2024-01-12T20:38:31.380Z,78.54
2024-01-12T20:41:34.322Z,79.34
2024-01-12T20:44:38.304Z,78.83
2024-01-12T20:47:41.382Z,78.49
2024-01-12T20:50:44.325Z,78.20
2024-01-12T20:53:49.673Z,78.30
2024-01-12T20:56:53.230Z,78.09
2024-01-12T20:59:56.058Z,78.17
2024-01-12T21:02:59.104Z,79.11
2024-01-12T21:06:02.334Z,79.80
2024-01-12T21:09:05.263Z,79.58
2024-01-12T21:12:08.325Z,79.83
2024-01-12T21:15:11.419Z,79.87
2024-01-12T21:18:14.619Z,79.79
2024-01-12T21:21:17.568Z,80.19
2024-01-12T21:24:20.472Z,80.43
2024-01-12T21:27:23.295Z,80.75
2024-01-12T21:30:26.477Z,81.10
2024-01-12T21:33:29.723Z,81.37
2024-01-12T21:36:32.745Z,81.54
2024-01-12T21:39:44.762Z,81.58
2024-01-12T21:42:47.582Z,81.64
2024-01-12T21:45:50.760Z,81.75
2024-01-12T21:48:53.718Z,81.54
2024-01-12T21:51:56.641Z,81.58
2024-01-12T21:54:59.485Z,81.55
2024-01-12T21:58:06.427Z,81.56
2024-01-12T22:01:09.524Z,81.32
2024-01-12T22:04:12.470Z,81.39
2024-01-12T22:07:15.502Z,81.56
2024-01-12T22:10:18.528Z,81.90
2024-01-12T22:13:21.313Z,81.81
2024-01-12T22:16:24.393Z,81.92
2024-01-12T22:19:27.335Z,81.55
2024-01-12T22:22:30.220Z,81.56
2024-01-12T22:25:32.985Z,81.81
2024-01-12T22:28:35.784Z,81.79
2024-01-12T22:31:38.585Z,81.50
2024-01-12T22:38:34.157Z,81.73
2024-01-12T22:41:37.409Z,81.66
2024-01-12T22:44:40.293Z,81.64
2024-01-12T22:47:43.231Z,81.34
2024-01-12T22:50:46.191Z,80.99
2024-01-12T22:53:49.107Z,80.97
2024-01-12T22:56:51.950Z,81.15
2024-01-12T22:59:54.836Z,81.58
2024-01-12T23:02:58.199Z,81.66
2024-01-12T23:06:01.849Z,81.63
2024-01-12T23:09:10.277Z,81.60
2024-01-12T23:12:13.418Z,81.79
2024-01-12T23:15:17.870Z,82.00
2024-01-12T23:18:20.964Z,82.21
2024-01-12T23:21:59.177Z,82.21
2024-01-12T23:25:02.096Z,82.25
2024-01-12T23:28:04.987Z,82.34
2024-01-12T23:31:07.927Z,82.88
2024-01-12T23:34:10.928Z,83.19
2024-01-12T23:37:13.952Z,83.04
2024-01-12T23:40:16.810Z,83.06
2024-01-12T23:43:19.649Z,83.06
2024-01-12T23:46:22.570Z,82.95
2024-01-12T23:49:25.458Z,83.02
2024-01-12T23:52:28.361Z,83.18
2024-01-12T23:55:31.140Z,83.19
2024-01-12T23:58:38.417Z,83.14
